sensor_id;sensor_type;location;lat;lon;timestamp;temperature;humidity
16253;DHT22;8234;41.480;2.306;2022-11-23T00:06:25;12.60;99.90
16253;DHT22;8234;41.480;2.306;2022-11-23T00:16:29;12.60;99.90
16253;DHT22;8234;41.480;2.306;2022-11-23T00:26:34;12.60;99.90
16253;DHT22;8234;41.480;2.306;2022-11-23T00:36:38;12.80;99.90
16253;DHT22;8234;41.480;2.306;2022-11-23T00:46:44;12.90;99.90
16253;DHT22;8234;41.480;2.306;2022-11-23T00:56:47;12.90;99.90
16253;DHT22;8234;41.480;2.306;2022-11-23T01:06:54;13.00;99.90
16253;DHT22;8234;41.480;2.306;2022-11-23T01:16:58;13.10;99.90
16253;DHT22;8234;41.480;2.306;2022-11-23T01:27:03;12.90;99.90
16253;DHT22;8234;41.480;2.306;2022-11-23T01:37:07;13.00;99.90
16253;DHT22;8234;41.480;2.306;2022-11-23T01:47:12;12.90;99.90
16253;DHT22;8234;41.480;2.306;2022-11-23T01:57:18;12.80;99.90
16253;DHT22;8234;41.480;2.306;2022-11-23T02:07:24;12.80;99.90
16253;DHT22;8234;41.480;2.306;2022-11-23T02:17:28;12.80;99.90
16253;DHT22;8234;41.480;2.306;2022-11-23T02:27:35;12.80;99.90
16253;DHT22;8234;41.480;2.306;2022-11-23T02:37:45;12.80;99.90
16253;DHT22;8234;41.480;2.306;2022-11-23T02:47:50;12.80;99.90
16253;DHT22;8234;41.480;2.306;2022-11-23T02:57:53;13.00;99.90
16253;DHT22;8234;41.480;2.306;2022-11-23T03:07:59;13.00;99.90
16253;DHT22;8234;41.480;2.306;2022-11-23T03:18:02;12.90;99.90
16253;DHT22;8234;41.480;2.306;2022-11-23T03:28:07;12.80;99.90
16253;DHT22;8234;41.480;2.306;2022-11-23T03:38:12;12.80;99.90
16253;DHT22;8234;41.480;2.306;2022-11-23T03:48:17;12.80;99.90
16253;DHT22;8234;41.480;2.306;2022-11-23T03:58:21;12.90;99.90
16253;DHT22;8234;41.480;2.306;2022-11-23T04:08:26;12.90;99.90
16253;DHT22;8234;41.480;2.306;2022-11-23T04:18:30;12.90;99.90
16253;DHT22;8234;41.480;2.306;2022-11-23T04:28:35;13.00;99.90
16253;DHT22;8234;41.480;2.306;2022-11-23T04:38:39;13.00;99.90
16253;DHT22;8234;41.480;2.306;2022-11-23T04:48:44;13.00;99.90
16253;DHT22;8234;41.480;2.306;2022-11-23T04:58:48;13.30;99.90
16253;DHT22;8234;41.480;2.306;2022-11-23T05:08:53;13.20;99.90
16253;DHT22;8234;41.480;2.306;2022-11-23T05:18:56;13.40;99.90
16253;DHT22;8234;41.480;2.306;2022-11-23T05:29:02;13.70;99.90
16253;DHT22;8234;41.480;2.306;2022-11-23T05:39:05;13.50;99.90
16253;DHT22;8234;41.480;2.306;2022-11-23T05:49:11;13.80;99.90
16253;DHT22;8234;41.480;2.306;2022-11-23T05:59:15;13.60;99.90
16253;DHT22;8234;41.480;2.306;2022-11-23T06:09:20;13.30;99.90
16253;DHT22;8234;41.480;2.306;2022-11-23T06:19:24;13.20;99.90
16253;DHT22;8234;41.480;2.306;2022-11-23T06:29:29;13.30;99.90
16253;DHT22;8234;41.480;2.306;2022-11-23T06:39:33;13.30;99.90
16253;DHT22;8234;41.480;2.306;2022-11-23T06:49:39;13.40;99.90
16253;DHT22;8234;41.480;2.306;2022-11-23T06:59:43;13.70;99.90
16253;DHT22;8234;41.480;2.306;2022-11-23T07:09:49;14.00;99.90
16253;DHT22;8234;41.480;2.306;2022-11-23T07:19:57;13.90;99.90
16253;DHT22;8234;41.480;2.306;2022-11-23T07:30:03;14.00;99.90
16253;DHT22;8234;41.480;2.306;2022-11-23T07:40:08;14.20;99.90
16253;DHT22;8234;41.480;2.306;2022-11-23T07:50:13;14.70;99.90
16253;DHT22;8234;41.480;2.306;2022-11-23T08:00:17;15.20;99.90
16253;DHT22;8234;41.480;2.306;2022-11-23T08:10:23;15.40;99.90
16253;DHT22;8234;41.480;2.306;2022-11-23T08:20:28;15.30;99.90
16253;DHT22;8234;41.480;2.306;2022-11-23T08:30:33;15.50;99.90
16253;DHT22;8234;41.480;2.306;2022-11-23T08:40:38;15.80;99.90
16253;DHT22;8234;41.480;2.306;2022-11-23T08:50:43;15.90;99.90
16253;DHT22;8234;41.480;2.306;2022-11-23T09:00:46;16.10;99.90
16253;DHT22;8234;41.480;2.306;2022-11-23T09:10:52;16.80;99.90
16253;DHT22;8234;41.480;2.306;2022-11-23T09:20:55;17.40;99.90
16253;DHT22;8234;41.480;2.306;2022-11-23T09:31:02;17.70;99.90
16253;DHT22;8234;41.480;2.306;2022-11-23T09:41:22;17.60;99.90
16253;DHT22;8234;41.480;2.306;2022-11-23T09:51:35;17.70;99.90
16253;DHT22;8234;41.480;2.306;2022-11-23T10:01:39;18.30;99.90
16253;DHT22;8234;41.480;2.306;2022-11-23T10:12:00;19.20;99.90
16253;DHT22;8234;41.480;2.306;2022-11-23T10:22:11;19.60;99.90
16253;DHT22;8234;41.480;2.306;2022-11-23T10:32:25;20.10;99.90
16253;DHT22;8234;41.480;2.306;2022-11-23T10:42:33;20.00;99.90
16253;DHT22;8234;41.480;2.306;2022-11-23T10:52:49;19.80;99.90
16253;DHT22;8234;41.480;2.306;2022-11-23T11:02:54;20.10;99.90
16253;DHT22;8234;41.480;2.306;2022-11-23T11:13:01;20.20;99.90
16253;DHT22;8234;41.480;2.306;2022-11-23T11:23:15;20.40;99.90
16253;DHT22;8234;41.480;2.306;2022-11-23T11:33:27;20.50;99.90
16253;DHT22;8234;41.480;2.306;2022-11-23T11:43:39;21.00;99.90
16253;DHT22;8234;41.480;2.306;2022-11-23T11:53:50;20.60;99.90
16253;DHT22;8234;41.480;2.306;2022-11-23T12:04:01;21.30;99.90
16253;DHT22;8234;41.480;2.306;2022-11-23T12:14:12;23.40;99.90
16253;DHT22;8234;41.480;2.306;2022-11-23T12:24:21;21.50;99.90
16253;DHT22;8234;41.480;2.306;2022-11-23T12:34:41;21.00;99.90
16253;DHT22;8234;41.480;2.306;2022-11-23T12:44:59;19.80;99.90
16253;DHT22;8234;41.480;2.306;2022-11-23T12:55:18;19.50;99.90
16253;DHT22;8234;41.480;2.306;2022-11-23T13:05:52;19.70;99.90
16253;DHT22;8234;41.480;2.306;2022-11-23T13:16:15;19.00;99.90
16253;DHT22;8234;41.480;2.306;2022-11-23T13:26:23;19.20;99.90
16253;DHT22;8234;41.480;2.306;2022-11-23T13:36:42;19.20;99.90
16253;DHT22;8234;41.480;2.306;2022-11-23T13:47:19;19.40;99.90
16253;DHT22;8234;41.480;2.306;2022-11-23T13:57:24;20.20;99.90
16253;DHT22;8234;41.480;2.306;2022-11-23T14:07:33;21.30;99.90
16253;DHT22;8234;41.480;2.306;2022-11-23T14:17:57;21.60;99.90
16253;DHT22;8234;41.480;2.306;2022-11-23T14:28:13;22.50;99.90
16253;DHT22;8234;41.480;2.306;2022-11-23T14:38:37;21.80;99.90
16253;DHT22;8234;41.480;2.306;2022-11-23T14:48:44;20.90;99.90
16253;DHT22;8234;41.480;2.306;2022-11-23T14:58:50;21.40;99.90
16253;DHT22;8234;41.480;2.306;2022-11-23T15:09:01;22.00;99.90
16253;DHT22;8234;41.480;2.306;2022-11-23T15:19:18;22.80;99.90
16253;DHT22;8234;41.480;2.306;2022-11-23T15:29:29;20.10;99.90
16253;DHT22;8234;41.480;2.306;2022-11-23T15:39:37;19.30;99.90
16253;DHT22;8234;41.480;2.306;2022-11-23T15:49:41;18.50;99.90
16253;DHT22;8234;41.480;2.306;2022-11-23T15:59:48;18.40;99.90
16253;DHT22;8234;41.480;2.306;2022-11-23T16:10:12;17.90;99.90
16253;DHT22;8234;41.480;2.306;2022-11-23T16:20:18;17.40;99.90
16253;DHT22;8234;41.480;2.306;2022-11-23T16:30:35;17.00;99.90
16253;DHT22;8234;41.480;2.306;2022-11-23T16:40:41;16.90;99.90
16253;DHT22;8234;41.480;2.306;2022-11-23T16:50:45;16.90;99.90
16253;DHT22;8234;41.480;2.306;2022-11-23T17:00:50;16.70;99.90
16253;DHT22;8234;41.480;2.306;2022-11-23T17:10:55;16.70;99.90
16253;DHT22;8234;41.480;2.306;2022-11-23T17:21:00;16.80;99.90
16253;DHT22;8234;41.480;2.306;2022-11-23T17:31:04;16.70;99.90
16253;DHT22;8234;41.480;2.306;2022-11-23T17:41:10;16.50;99.90
16253;DHT22;8234;41.480;2.306;2022-11-23T17:51:14;16.60;99.90
16253;DHT22;8234;41.480;2.306;2022-11-23T18:01:20;16.50;99.90
16253;DHT22;8234;41.480;2.306;2022-11-23T18:11:25;16.40;99.90
16253;DHT22;8234;41.480;2.306;2022-11-23T18:21:31;16.30;99.90
16253;DHT22;8234;41.480;2.306;2022-11-23T18:31:35;16.20;99.90
16253;DHT22;8234;41.480;2.306;2022-11-23T18:41:40;16.00;99.90
16253;DHT22;8234;41.480;2.306;2022-11-23T18:51:44;16.00;99.90
16253;DHT22;8234;41.480;2.306;2022-11-23T19:01:49;16.00;99.90
16253;DHT22;8234;41.480;2.306;2022-11-23T19:11:53;15.90;99.90
16253;DHT22;8234;41.480;2.306;2022-11-23T19:21:58;16.00;99.90
16253;DHT22;8234;41.480;2.306;2022-11-23T19:32:03;15.80;99.90
16253;DHT22;8234;41.480;2.306;2022-11-23T19:42:09;15.60;99.90
16253;DHT22;8234;41.480;2.306;2022-11-23T19:52:13;14.70;99.90
16253;DHT22;8234;41.480;2.306;2022-11-23T20:02:23;15.50;99.90
16253;DHT22;8234;41.480;2.306;2022-11-23T20:12:28;15.80;99.90
16253;DHT22;8234;41.480;2.306;2022-11-23T20:22:33;15.20;99.90
16253;DHT22;8234;41.480;2.306;2022-11-23T20:32:37;14.80;99.90
16253;DHT22;8234;41.480;2.306;2022-11-23T20:42:42;14.90;99.90
16253;DHT22;8234;41.480;2.306;2022-11-23T20:52:47;14.80;99.90
16253;DHT22;8234;41.480;2.306;2022-11-23T21:02:53;14.60;99.90
16253;DHT22;8234;41.480;2.306;2022-11-23T21:12:58;14.80;99.90
16253;DHT22;8234;41.480;2.306;2022-11-23T21:23:20;15.10;99.90
16253;DHT22;8234;41.480;2.306;2022-11-23T21:33:24;15.30;99.90
16253;DHT22;8234;41.480;2.306;2022-11-23T21:43:29;15.90;99.90
16253;DHT22;8234;41.480;2.306;2022-11-23T21:53:34;16.00;99.90
16253;DHT22;8234;41.480;2.306;2022-11-23T22:03:42;16.20;99.90
16253;DHT22;8234;41.480;2.306;2022-11-23T22:13:46;16.20;99.90
16253;DHT22;8234;41.480;2.306;2022-11-23T22:23:51;16.30;99.90
16253;DHT22;8234;41.480;2.306;2022-11-23T22:33:55;15.60;99.90
16253;DHT22;8234;41.480;2.306;2022-11-23T22:44:00;15.60;99.90
16253;DHT22;8234;41.480;2.306;2022-11-23T22:54:04;15.70;99.90
16253;DHT22;8234;41.480;2.306;2022-11-23T23:04:10;15.50;99.90
16253;DHT22;8234;41.480;2.306;2022-11-23T23:14:13;15.40;99.90
16253;DHT22;8234;41.480;2.306;2022-11-23T23:24:19;15.60;99.90
16253;DHT22;8234;41.480;2.306;2022-11-23T23:34:22;15.60;99.90
16253;DHT22;8234;41.480;2.306;2022-11-23T23:44:28;15.50;99.90
16253;DHT22;8234;41.480;2.306;2022-11-23T23:54:32;15.50;99.90
